Time;durP1;ratioP1;P1;durP2;ratioP2;P2;SDS_P1;SDS_P2;PMS_P1;PMS_P2;Temp;Humidity;BMP_temperature;BMP_pressure;BME280_temperature;BME280_humidity;BME280_pressure;Samples;Min_cycle;Max_cycle;Signal;HPM_P1;HPM_P2
2024/04/14 00:03:13;;;;;;;;;23.67;21.33;;;;;;;;6489718;39;8961;-61
2024/04/14 00:09:18;;;;;;;;;29.67;27.00;;;;;;;;6490823;39;8998;-61
2024/04/14 00:15:21;;;;;;;;;26.00;23.33;;;;;;;;6489921;46;8973;-61
2024/04/14 00:21:27;;;;;;;;;29.00;26.33;;;;;;;;6489254;46;8924;-60
2024/04/14 00:27:30;;;;;;;;;29.00;27.00;;;;;;;;6490252;39;9023;-61
2024/04/14 00:33:42;;;;;;;;;19.67;19.67;;;;;;;;6489873;46;8880;-62
2024/04/14 00:39:46;;;;;;;;;24.67;24.00;;;;;;;;6490795;39;8901;-61
2024/04/14 00:45:50;;;;;;;;;24.67;22.33;;;;;;;;6489467;39;8947;-61
2024/04/14 00:52:09;;;;;;;;;23.67;21.00;;;;;;;;6491468;39;8973;-60
2024/04/14 00:58:14;;;;;;;;;24.33;22.67;;;;;;;;6489745;31;8935;-61
2024/04/14 01:04:25;;;;;;;;;24.00;23.33;;;;;;;;6490458;46;8960;-61
2024/04/14 01:10:36;;;;;;;;;25.33;24.33;;;;;;;;6489651;39;8851;-61
2024/04/14 01:16:43;;;;;;;;;24.00;21.67;;;;;;;;6489416;31;9064;-61
2024/04/14 01:22:51;;;;;;;;;22.67;20.00;;;;;;;;6489664;46;8868;-62
2024/04/14 01:28:53;;;;;;;;;21.00;20.33;;;;;;;;6489600;39;9071;-61
2024/04/14 01:35:03;;;;;;;;;21.33;19.00;;;;;;;;6490247;31;8937;-61
2024/04/14 01:41:14;;;;;;;;;18.33;18.00;;;;;;;;6489016;46;8926;-62
2024/04/14 01:47:18;;;;;;;;;11.67;10.33;;;;;;;;6488886;39;9043;-62
2024/04/14 01:53:25;;;;;;;;;19.00;18.00;;;;;;;;6489843;39;8878;-62
2024/04/14 01:59:37;;;;;;;;;14.00;13.00;;;;;;;;6488868;31;8912;-60
2024/04/14 02:05:59;;;;;;;;;19.00;16.00;;;;;;;;6490132;46;8917;-61
2024/04/14 02:12:07;;;;;;;;;17.33;17.33;;;;;;;;6488188;31;8907;-62
2024/04/14 02:18:19;;;;;;;;;14.33;14.33;;;;;;;;6535289;36;8921;-61
2024/04/14 02:24:29;;;;;;;;;15.33;15.33;;;;;;;;6488972;39;9663;-61
2024/04/14 02:30:36;;;;;;;;;17.33;16.00;;;;;;;;6488636;39;8905;-63
2024/04/14 02:36:44;;;;;;;;;13.33;11.33;;;;;;;;6488844;31;8891;-61
2024/04/14 02:42:50;;;;;;;;;13.67;13.67;;;;;;;;6489646;39;9686;-61
2024/04/14 02:49:00;;;;;;;;;12.00;12.00;;;;;;;;6490259;31;8931;-62
2024/04/14 02:55:03;;;;;;;;;16.33;13.67;;;;;;;;6489483;39;8968;-60
2024/04/14 03:01:17;;;;;;;;;15.00;13.67;;;;;;;;6488806;39;9053;-60
2024/04/14 03:07:24;;;;;;;;;17.33;16.00;;;;;;;;6490196;31;8972;-61
2024/04/14 03:13:30;;;;;;;;;15.33;14.67;;;;;;;;6490370;46;8888;-60
2024/04/14 03:19:31;;;;;;;;;16.33;16.33;;;;;;;;6490757;39;9581;-61
2024/04/14 03:25:37;;;;;;;;;18.33;18.33;;;;;;;;6490603;46;8884;-62
2024/04/14 03:31:47;;;;;;;;;16.33;14.33;;;;;;;;6490570;39;8949;-62
2024/04/14 03:37:51;;;;;;;;;18.00;17.67;;;;;;;;6490265;46;8994;-62
2024/04/14 03:44:00;;;;;;;;;15.33;15.33;;;;;;;;6490982;46;8933;-61
2024/04/14 03:50:07;;;;;;;;;16.33;15.67;;;;;;;;6490869;39;8911;-62
2024/04/14 03:56:15;;;;;;;;;16.33;14.33;;;;;;;;6489995;46;8914;-61
2024/04/14 04:02:17;;;;;;;;;15.33;14.00;;;;;;;;6490251;39;10046;-61
2024/04/14 04:08:23;;;;;;;;;15.33;15.33;;;;;;;;6489058;46;8893;-62
2024/04/14 04:14:26;;;;;;;;;16.33;14.67;;;;;;;;6489350;39;8883;-61
2024/04/14 04:20:30;;;;;;;;;14.33;14.00;;;;;;;;6488989;46;8893;-62
2024/04/14 04:26:39;;;;;;;;;18.67;16.67;;;;;;;;6489692;39;8959;-62
2024/04/14 04:32:48;;;;;;;;;18.00;16.00;;;;;;;;6490263;46;8964;-61
2024/04/14 04:39:04;;;;;;;;;13.67;13.67;;;;;;;;6489008;39;8947;-61
2024/04/14 04:45:11;;;;;;;;;18.33;18.00;;;;;;;;6490740;39;8921;-61
2024/04/14 04:51:22;;;;;;;;;16.67;15.67;;;;;;;;6489939;46;8944;-61
2024/04/14 04:57:34;;;;;;;;;19.67;19.00;;;;;;;;6489621;46;8894;-61
2024/04/14 05:03:39;;;;;;;;;22.00;21.00;;;;;;;;6489540;31;8991;-63
2024/04/14 05:09:46;;;;;;;;;17.67;17.33;;;;;;;;6490586;39;8866;-61
2024/04/14 05:15:50;;;;;;;;;22.67;18.67;;;;;;;;6490859;39;9660;-62
2024/04/14 05:21:51;;;;;;;;;14.67;14.67;;;;;;;;6487921;39;8937;-61
2024/04/14 05:28:04;;;;;;;;;26.67;24.33;;;;;;;;6489704;46;8940;-61
2024/04/14 05:34:08;;;;;;;;;20.33;20.33;;;;;;;;6487772;39;9020;-60
2024/04/14 05:40:16;;;;;;;;;26.00;25.00;;;;;;;;6489186;39;8911;-61
2024/04/14 05:46:20;;;;;;;;;24.00;24.00;;;;;;;;6489489;39;9700;-61
2024/04/14 05:52:33;;;;;;;;;30.00;27.00;;;;;;;;6489595;39;8947;-63
2024/04/14 05:58:45;;;;;;;;;25.33;25.33;;;;;;;;6491268;31;8914;-60
2024/04/14 06:04:50;;;;;;;;;30.67;27.00;;;;;;;;6488466;39;9467;-61
2024/04/14 06:10:53;;;;;;;;;22.67;21.33;;;;;;;;6488909;39;8890;-63
2024/04/14 06:17:06;;;;;;;;;26.67;26.33;;;;;;;;6487243;39;8923;-62
2024/04/14 06:23:16;;;;;;;;;22.67;21.67;;;;;;;;6488461;39;8968;-62
2024/04/14 06:29:18;;;;;;;;;24.33;22.67;;;;;;;;6490825;39;8884;-61
2024/04/14 06:35:23;;;;;;;;;27.33;25.67;;;;;;;;6488499;31;8893;-61
2024/04/14 06:41:27;;;;;;;;;20.67;19.33;;;;;;;;6489236;46;8896;-62
2024/04/14 06:47:33;;;;;;;;;28.33;25.33;;;;;;;;6491083;39;8930;-63
2024/04/14 06:53:41;;;;;;;;;29.33;28.67;;;;;;;;6491312;39;9549;-62
2024/04/14 06:59:58;;;;;;;;;33.67;30.67;;;;;;;;6491182;39;8925;-63
2024/04/14 07:06:07;;;;;;;;;29.00;27.67;;;;;;;;6490587;46;9344;-62
2024/04/14 07:12:16;;;;;;;;;30.33;27.33;;;;;;;;6490889;39;8882;-62
2024/04/14 07:18:25;;;;;;;;;19.33;18.67;;;;;;;;6490516;46;8894;-61
2024/04/14 07:24:34;;;;;;;;;19.67;18.00;;;;;;;;6489717;46;8933;-62
2024/04/14 07:30:37;;;;;;;;;19.50;18.25;;;;;;;;6491339;39;8904;-62
2024/04/14 07:36:43;;;;;;;;;18.00;18.00;;;;;;;;6490960;46;8885;-62
2024/04/14 07:42:51;;;;;;;;;16.00;16.00;;;;;;;;6490926;39;9007;-62
2024/04/14 07:48:59;;;;;;;;;17.00;14.25;;;;;;;;6489978;46;9004;-62
2024/04/14 07:55:05;;;;;;;;;19.50;17.00;;;;;;;;6490567;39;8900;-61
2024/04/14 08:01:09;;;;;;;;;20.00;18.00;;;;;;;;6490502;31;8991;-63
2024/04/14 08:07:16;;;;;;;;;14.00;14.00;;;;;;;;6488778;39;8962;-63
2024/04/14 08:13:23;;;;;;;;;13.00;13.00;;;;;;;;6490221;46;8898;-63
2024/04/14 08:19:25;;;;;;;;;15.50;14.00;;;;;;;;6490644;31;8884;-62
2024/04/14 08:25:28;;;;;;;;;15.00;14.00;;;;;;;;6490366;39;8933;-62
2024/04/14 08:31:32;;;;;;;;;14.00;12.00;;;;;;;;6488945;46;8884;-60
2024/04/14 08:37:54;;;;;;;;;16.50;13.25;;;;;;;;6490461;39;9584;-62
2024/04/14 08:44:07;;;;;;;;;13.25;12.25;;;;;;;;6489755;39;8936;-61
2024/04/14 08:50:24;;;;;;;;;11.00;10.25;;;;;;;;6491350;31;9526;-61
2024/04/14 08:57:04;;;;;;;;;15.75;13.50;;;;;;;;6490343;39;9026;-62
2024/04/14 09:03:11;;;;;;;;;13.25;13.25;;;;;;;;6489576;39;8945;-62
2024/04/14 09:09:24;;;;;;;;;14.75;12.75;;;;;;;;6490915;39;8903;-62
2024/04/14 09:15:30;;;;;;;;;12.00;11.50;;;;;;;;6489750;31;8917;-62
2024/04/14 09:21:38;;;;;;;;;9.00;9.00;;;;;;;;6490197;39;8935;-63
2024/04/14 09:27:42;;;;;;;;;9.50;9.25;;;;;;;;6489558;39;8926;-63
2024/04/14 09:33:51;;;;;;;;;12.00;11.00;;;;;;;;6490795;31;9026;-62
2024/04/14 09:39:57;;;;;;;;;10.25;8.75;;;;;;;;6488358;31;9000;-62
2024/04/14 09:46:28;;;;;;;;;11.00;10.00;;;;;;;;6489416;39;8971;-62
2024/04/14 09:52:42;;;;;;;;;11.00;10.50;;;;;;;;6490021;31;8933;-61
2024/04/14 09:58:47;;;;;;;;;9.75;9.75;;;;;;;;6489766;39;8916;-63
2024/04/14 10:04:57;;;;;;;;;13.75;13.75;;;;;;;;6489286;39;8987;-62
2024/04/14 10:11:03;;;;;;;;;11.00;11.00;;;;;;;;6489096;46;9066;-63
2024/04/14 10:17:14;;;;;;;;;13.75;13.00;;;;;;;;6489358;39;9000;-63
2024/04/14 10:23:20;;;;;;;;;10.25;10.25;;;;;;;;6490280;31;8932;-61
2024/04/14 10:29:22;;;;;;;;;11.75;10.75;;;;;;;;6488540;47;8881;-63
2024/04/14 10:35:28;;;;;;;;;13.00;11.25;;;;;;;;6489244;39;9023;-61
2024/04/14 10:41:39;;;;;;;;;14.75;13.75;;;;;;;;6489240;39;8889;-63
2024/04/14 10:47:47;;;;;;;;;10.25;8.50;;;;;;;;6489206;39;8899;-63
2024/04/14 10:54:01;;;;;;;;;10.75;10.75;;;;;;;;6488716;39;8926;-63
2024/04/14 11:00:10;;;;;;;;;9.75;9.50;;;;;;;;6488898;47;8948;-64
2024/04/14 11:06:23;;;;;;;;;10.50;9.50;;;;;;;;6489130;47;8890;-61
2024/04/14 11:12:28;;;;;;;;;11.25;9.50;;;;;;;;6488396;39;8892;-62
2024/04/14 11:18:35;;;;;;;;;4.25;4.25;;;;;;;;6488148;47;9016;-60
2024/04/14 11:24:38;;;;;;;;;9.00;7.50;;;;;;;;6488531;31;9038;-62
2024/04/14 11:30:42;;;;;;;;;8.50;8.50;;;;;;;;6489314;39;9715;-61
2024/04/14 11:36:47;;;;;;;;;11.25;11.25;;;;;;;;6490026;31;8880;-63
2024/04/14 11:42:49;;;;;;;;;10.25;10.25;;;;;;;;6490001;39;8877;-62
2024/04/14 11:48:54;;;;;;;;;8.00;8.00;;;;;;;;6489955;46;9519;-62
2024/04/14 11:54:57;;;;;;;;;12.00;10.00;;;;;;;;6491905;31;9679;-62
2024/04/14 12:01:07;;;;;;;;;7.25;7.25;;;;;;;;6490288;46;9014;-63
2024/04/14 12:07:12;;;;;;;;;9.75;9.00;;;;;;;;6490119;31;9008;-61
2024/04/14 12:13:37;;;;;;;;;6.75;6.75;;;;;;;;6490632;39;8914;-66
2024/04/14 12:19:40;;;;;;;;;9.25;9.25;;;;;;;;6490061;46;8924;-61
2024/04/14 12:25:44;;;;;;;;;9.00;7.75;;;;;;;;6489991;39;8924;-61
2024/04/14 12:31:46;;;;;;;;;9.25;9.25;;;;;;;;6490275;31;8941;-64
2024/04/14 12:37:51;;;;;;;;;9.25;9.25;;;;;;;;6489698;31;8916;-61
2024/04/14 12:43:57;;;;;;;;;6.75;6.25;;;;;;;;6490525;39;9636;-62
2024/04/14 12:50:14;;;;;;;;;7.25;7.25;;;;;;;;6489837;46;10023;-61
2024/04/14 12:56:27;;;;;;;;;7.50;7.50;;;;;;;;6490948;39;8890;-63
2024/04/14 13:02:35;;;;;;;;;18.25;13.50;;;;;;;;6490653;39;8984;-63
2024/04/14 13:08:51;;;;;;;;;9.75;8.00;;;;;;;;6490780;31;8889;-63
2024/04/14 13:15:10;;;;;;;;;9.25;9.00;;;;;;;;6490214;39;9031;-62
2024/04/14 13:21:28;;;;;;;;;9.50;8.25;;;;;;;;6489768;39;8921;-63
2024/04/14 13:27:36;;;;;;;;;8.25;8.25;;;;;;;;6490151;39;8986;-63
2024/04/14 13:33:40;;;;;;;;;9.00;7.25;;;;;;;;6489258;46;8890;-62
2024/04/14 13:40:01;;;;;;;;;10.00;8.50;;;;;;;;6489733;39;8896;-62
2024/04/14 13:50:45;;;;;;;;;14.25;14.25;;;;;;;;6498316;31;15091;-62
2024/04/14 13:56:48;;;;;;;;;9.75;9.50;;;;;;;;6501254;46;8880;-62
2024/04/14 14:02:48;;;;;;;;;12.75;11.00;;;;;;;;6501547;38;9504;-63
2024/04/14 14:08:52;;;;;;;;;23.00;23.00;;;;;;;;6502212;46;8907;-62
2024/04/14 14:15:02;;;;;;;;;9.00;8.50;;;;;;;;6502333;38;8942;-63
2024/04/14 14:21:10;;;;;;;;;13.25;12.25;;;;;;;;6502772;31;8900;-62
2024/04/14 14:27:19;;;;;;;;;15.00;14.00;;;;;;;;6502064;38;8923;-62
2024/04/14 14:39:51;;;;;;;;;8.00;8.00;;;;;;;;6501605;38;8904;-62
2024/04/14 14:45:53;;;;;;;;;11.50;11.50;;;;;;;;6502237;38;9626;-62
2024/04/14 14:52:20;;;;;;;;;12.00;12.00;;;;;;;;6501154;38;9005;-62
2024/04/14 14:58:29;;;;;;;;;13.75;11.75;;;;;;;;6497396;39;9523;-63
2024/04/14 15:04:31;;;;;;;;;17.00;16.25;;;;;;;;6494780;46;9005;-61
2024/04/14 15:10:51;;;;;;;;;15.50;15.50;;;;;;;;6493648;46;8877;-63
2024/04/14 15:16:55;;;;;;;;;11.00;11.00;;;;;;;;6494681;39;9438;-63
2024/04/14 15:23:00;;;;;;;;;17.00;14.50;;;;;;;;6493581;39;8913;-63
2024/04/14 15:29:10;;;;;;;;;17.00;17.00;;;;;;;;6493723;39;9008;-63
2024/04/14 15:35:15;;;;;;;;;16.75;13.50;;;;;;;;6494084;31;8890;-61
2024/04/14 15:41:19;;;;;;;;;15.25;13.00;;;;;;;;6493788;31;8894;-62
2024/04/14 15:47:25;;;;;;;;;13.00;13.00;;;;;;;;6494584;39;8854;-63
2024/04/14 15:53:30;;;;;;;;;16.25;13.25;;;;;;;;6493699;39;8886;-62
2024/04/14 15:59:38;;;;;;;;;15.00;14.00;;;;;;;;6494446;39;10048;-64
2024/04/14 16:05:53;;;;;;;;;15.25;14.50;;;;;;;;6492682;31;8920;-63
2024/04/14 16:11:59;;;;;;;;;16.00;16.00;;;;;;;;6492098;39;8877;-63
2024/04/14 16:18:06;;;;;;;;;14.75;14.00;;;;;;;;6492921;46;8877;-61
2024/04/14 16:24:11;;;;;;;;;14.00;12.00;;;;;;;;6491890;39;8881;-63
2024/04/14 16:30:19;;;;;;;;;17.25;16.25;;;;;;;;6493182;39;8877;-62
2024/04/14 16:36:24;;;;;;;;;12.75;12.75;;;;;;;;6492515;31;8845;-61
2024/04/14 16:42:31;;;;;;;;;12.00;12.00;;;;;;;;6491987;39;8926;-63
2024/04/14 16:48:36;;;;;;;;;17.00;17.00;;;;;;;;6491431;39;9071;-63
2024/04/14 16:54:48;;;;;;;;;13.50;13.50;;;;;;;;6492425;46;8877;-63
2024/04/14 17:00:56;;;;;;;;;21.75;21.00;;;;;;;;6493153;31;8926;-62
2024/04/14 17:07:06;;;;;;;;;21.00;19.00;;;;;;;;6492645;39;8967;-62
2024/04/14 17:13:12;;;;;;;;;18.00;18.00;;;;;;;;6491059;46;8896;-63
2024/04/14 17:19:29;;;;;;;;;18.75;15.75;;;;;;;;6491279;39;9495;-62
2024/04/14 17:25:33;;;;;;;;;16.67;16.67;;;;;;;;6509738;31;8896;-62
2024/04/14 17:31:40;;;;;;;;;19.25;16.75;;;;;;;;6491599;31;8959;-62
2024/04/14 17:37:48;;;;;;;;;28.67;24.67;;;;;;;;6491881;39;9617;-63
2024/04/14 17:44:01;;;;;;;;;28.67;28.00;;;;;;;;6491706;46;8858;-62
2024/04/14 17:50:14;;;;;;;;;20.67;18.00;;;;;;;;6491319;47;9000;-64
2024/04/14 17:56:16;;;;;;;;;18.00;16.00;;;;;;;;6490914;39;8859;-62
2024/04/14 18:02:23;;;;;;;;;18.67;16.33;;;;;;;;6490484;47;8964;-63
2024/04/14 18:08:30;;;;;;;;;17.00;17.00;;;;;;;;6489212;47;8952;-63
2024/04/14 18:14:35;;;;;;;;;15.33;15.33;;;;;;;;6491010;39;8900;-61
2024/04/14 18:20:44;;;;;;;;;18.00;18.00;;;;;;;;6489598;39;8881;-61
2024/04/14 18:26:51;;;;;;;;;19.67;17.67;;;;;;;;6490856;39;8908;-61
2024/04/14 18:32:56;;;;;;;;;24.00;22.33;;;;;;;;6491104;39;8897;-62
2024/04/14 18:39:02;;;;;;;;;19.67;19.67;;;;;;;;6491613;46;9007;-61
2024/04/14 18:45:04;;;;;;;;;17.00;17.00;;;;;;;;6492005;39;8893;-62
2024/04/14 18:51:13;;;;;;;;;15.00;15.00;;;;;;;;6491264;31;8933;-63
2024/04/14 18:57:18;;;;;;;;;15.67;15.00;;;;;;;;6491679;39;8980;-62
2024/04/14 19:03:22;;;;;;;;;12.00;12.00;;;;;;;;6491894;46;8937;-61
2024/04/14 19:09:43;;;;;;;;;11.67;11.67;;;;;;;;6492680;39;9587;-62
2024/04/14 19:15:48;;;;;;;;;12.00;11.00;;;;;;;;6492487;31;9016;-61
2024/04/14 19:21:55;;;;;;;;;12.33;11.67;;;;;;;;6492149;31;8929;-63
2024/04/14 19:34:30;;;;;;;;;10.67;10.67;;;;;;;;6491375;39;8889;-63
2024/04/14 19:40:39;;;;;;;;;9.00;8.67;;;;;;;;6492547;39;8935;-61
2024/04/14 19:46:41;;;;;;;;;13.33;12.00;;;;;;;;6491085;46;8988;-63
2024/04/14 19:52:44;;;;;;;;;12.00;10.33;;;;;;;;6491741;31;8996;-63
2024/04/14 19:58:52;;;;;;;;;13.67;12.33;;;;;;;;6491019;39;8925;-62
2024/04/14 20:05:12;;;;;;;;;13.67;11.33;;;;;;;;6491497;39;9032;-64
2024/04/14 20:11:23;;;;;;;;;14.00;12.33;;;;;;;;6490247;31;9055;-61
2024/04/14 20:17:29;;;;;;;;;11.67;11.00;;;;;;;;6491239;39;8917;-62
2024/04/14 20:23:59;;;;;;;;;14.00;10.33;;;;;;;;6491634;46;8878;-64
2024/04/14 20:30:08;;;;;;;;;11.67;11.33;;;;;;;;6489836;31;8998;-62
2024/04/14 20:36:38;;;;;;;;;10.67;9.33;;;;;;;;6492203;46;8900;-61
2024/04/14 20:42:44;;;;;;;;;11.33;9.33;;;;;;;;6490841;39;8924;-62
2024/04/14 20:48:53;;;;;;;;;9.33;9.33;;;;;;;;6491158;46;9065;-62
2024/04/14 20:55:02;;;;;;;;;10.67;9.67;;;;;;;;6489810;31;8897;-63
2024/04/14 21:01:12;;;;;;;;;8.33;8.33;;;;;;;;6489962;46;8989;-62
2024/04/14 21:07:16;;;;;;;;;10.33;10.00;;;;;;;;6491398;39;8936;-61
2024/04/14 21:13:25;;;;;;;;;10.00;8.00;;;;;;;;6490299;39;8904;-62
2024/04/14 21:19:35;;;;;;;;;7.33;7.33;;;;;;;;6492529;39;8936;-63
2024/04/14 21:25:37;;;;;;;;;9.33;8.67;;;;;;;;6491224;39;8933;-62
2024/04/14 21:31:42;;;;;;;;;13.00;11.00;;;;;;;;6490848;39;8901;-62
2024/04/14 21:37:55;;;;;;;;;9.00;9.00;;;;;;;;6489990;39;8905;-62
2024/04/14 21:44:18;;;;;;;;;12.33;10.33;;;;;;;;6490040;47;9044;-62
2024/04/14 21:50:25;;;;;;;;;9.67;9.33;;;;;;;;6490098;47;8933;-62
2024/04/14 21:56:32;;;;;;;;;11.00;11.00;;;;;;;;6489925;39;8905;-62
2024/04/14 22:02:37;;;;;;;;;10.33;10.00;;;;;;;;6491132;46;8995;-62
2024/04/14 22:08:50;;;;;;;;;11.33;11.33;;;;;;;;6490962;39;9466;-62
2024/04/14 22:14:58;;;;;;;;;10.33;10.00;;;;;;;;6492259;31;8976;-61
2024/04/14 22:21:07;;;;;;;;;11.00;9.33;;;;;;;;6492137;39;9096;-62
2024/04/14 22:27:14;;;;;;;;;10.00;10.00;;;;;;;;6491475;39;8932;-63
2024/04/14 22:33:23;;;;;;;;;9.00;8.00;;;;;;;;6492123;39;9008;-61
2024/04/14 22:39:37;;;;;;;;;10.00;8.67;;;;;;;;6492278;31;8971;-61
2024/04/14 22:45:41;;;;;;;;;8.00;7.00;;;;;;;;6311356;46;10001660;-61
2024/04/14 22:51:43;;;;;;;;;10.67;10.67;;;;;;;;6490827;46;8897;-62
2024/04/14 22:57:52;;;;;;;;;8.00;8.00;;;;;;;;6491768;39;8921;-62
2024/04/14 23:03:58;;;;;;;;;5.67;5.00;;;;;;;;6491844;46;8924;-61
2024/04/14 23:10:03;;;;;;;;;12.67;10.00;;;;;;;;6491839;31;9059;-62
2024/04/14 23:16:09;;;;;;;;;9.67;9.67;;;;;;;;6491844;31;8956;-62
2024/04/14 23:22:16;;;;;;;;;14.00;12.33;;;;;;;;6490642;46;8884;-60
2024/04/14 23:28:20;;;;;;;;;13.00;11.00;;;;;;;;6492091;39;9101;-61
2024/04/14 23:34:29;;;;;;;;;13.00;11.00;;;;;;;;6491654;39;8897;-63
2024/04/14 23:40:35;;;;;;;;;11.67;10.33;;;;;;;;6492019;31;9010;-62
2024/04/14 23:46:44;;;;;;;;;12.67;12.33;;;;;;;;6491973;39;8941;-63
2024/04/14 23:52:48;;;;;;;;;13.00;12.67;;;;;;;;6491500;36;195074;-61
2024/04/14 23:58:55;;;;;;;;;14.00;14.00;;;;;;;;6491064;46;8941;-62
